Latest Weather Observations for Kadina

IDS60801

Issued at 8:35 pm CST Tuesday 16 September 2014 (issued every 30 minutes, with the page automatically refreshed every 10 minutes)

About weather observations | Map of weather stations | Latest weather observations for SA | Other Formats
Station Details ID: 022050 Name: KADINA AWS Lat: -33.97 Lon: 137.66 Height: 41.14 m
Data from the previous 72 hours. | See also: Recent months at Kadina
Date/Time
CST
Temp
°C
App
Temp
°C
Dew
Point
Rel
Hum
%
Delta-T
°C
Wind Press
QNH
hPa
Press
MSL
hPa
Rain
since 9 am
mm
Dir
 
Spd
km/h
Gust
km/h
Spd
kts
Gust
kts
16/08:30pm 11.3 9.6 10.0 92 0.7 SSW 9 11 5 6 1020.0 - 0.0
16/08:00pm 11.3 9.3 10.0 92 0.7 SW 11 13 6 7 1019.8 - 0.0
16/07:30pm 11.3 10.1 10.2 93 0.6 S 7 11 4 6 1019.4 - 0.0
16/07:00pm 11.1 9.0 9.7 91 0.7 S 11 13 6 7 1018.9 - 0.0
16/06:30pm 12.0 8.9 10.4 90 0.8 S 17 26 9 14 1018.6 - 0.0
16/06:00pm 13.1 9.8 9.7 80 1.7 SSW 17 24 9 13 1018.3 1018.2 0.0
16/05:30pm 13.2 9.6 10.0 81 1.7 SSW 19 24 10 13 1017.9 - 0.0
16/05:00pm 15.2 10.9 9.3 68 3.0 S 22 30 12 16 1017.5 - 0.0
16/04:30pm 16.6 12.6 9.1 61 3.9 SW 20 26 11 14 1017.4 - 0.0
16/04:00pm 15.9 11.1 5.5 50 5.0 SW 20 26 11 14 1017.5 - 0.0
16/03:30pm 16.7 11.8 5.0 46 5.6 WSW 20 28 11 15 1017.5 - 0.0
16/03:00pm 17.5 12.2 5.1 44 5.9 WSW 22 28 12 15 1017.4 1017.3 0.0
16/01:30pm 17.1 11.4 5.1 45 5.8 W 24 39 13 21 1018.1 - 0.0
16/01:00pm 17.3 11.9 6.2 48 5.4 W 24 33 13 18 1018.2 - 0.0
16/12:30pm 17.2 13.0 8.4 56 4.5 WSW 20 33 11 18 1018.5 - 0.0
16/12:00pm 16.3 11.6 9.3 63 3.6 WSW 24 33 13 18 1019.0 1018.9 0.0
16/11:30am 15.7 9.8 8.9 64 3.5 W 30 37 16 20 1019.2 - 0.0
16/11:00am 16.1 11.7 9.1 63 3.6 WSW 22 35 12 19 1019.3 - 0.0
16/10:30am 15.7 11.0 9.4 66 3.3 W 24 30 13 16 1019.3 - 0.0
16/10:00am 15.8 11.8 9.0 64 3.5 WSW 20 32 11 17 1019.2 - 0.0
16/09:30am 14.9 11.2 10.1 73 2.5 WSW 20 32 11 17 1019.4 - 0.0
16/09:00am 14.1 10.2 10.9 81 1.7 W 22 28 12 15 1019.6 1019.5 0.0
16/08:30am 13.0 10.7 11.7 92 0.7 W 15 20 8 11 1019.7 - 0.0
16/08:00am 10.6 10.3 10.1 97 0.3 ENE 2 6 1 3 1019.6 - 0.0
16/07:30am 8.1 6.4 7.7 97 0.2 ENE 6 7 3 4 1019.4 - 0.0
16/07:00am 5.5 3.1 5.1 97 0.2 ENE 7 9 4 5 1019.0 - 0.0
16/06:30am 4.9 2.4 4.5 97 0.2 E 7 9 4 5 1018.9 - 0.0
16/06:00am 4.6 1.6 4.0 96 0.3 E 9 9 5 5 1018.8 1018.7 0.0
16/05:30am 4.2 1.1 3.8 97 0.2 E 9 9 5 5 1018.6 - 0.0
16/05:00am 3.6 0.8 3.0 96 0.2 SE 7 9 4 5 1018.2 - 0.0
16/04:30am 4.9 2.5 4.3 96 0.3 SE 6 6 3 3 1018.1 - 0.0
16/04:00am 5.3 2.8 4.7 96 0.3 SSW 7 9 4 5 1018.1 - 0.0
16/03:30am 5.5 3.0 4.9 96 0.3 S 7 9 4 5 1018.0 - 0.0
16/03:00am 7.0 4.1 6.4 96 0.3 SSW 11 11 6 6 1017.7 1017.6 0.0
16/02:30am 7.2 4.3 6.6 96 0.3 S 11 13 6 7 1017.8 - 0.0
16/02:00am 7.5 4.7 6.8 95 0.3 S 11 11 6 6 1018.0 - 0.0
16/01:30am 8.2 5.9 7.4 95 0.4 SSW 9 11 5 6 1018.3 - 0.0
16/01:00am 7.7 4.5 6.8 94 0.4 S 13 13 7 7 1018.4 - 0.0
16/12:30am 8.3 5.6 7.4 94 0.4 SSW 11 13 6 7 1018.6 - 0.0
16/12:00am 8.9 6.4 8.0 94 0.4 SSW 11 15 6 8 1018.7 1018.6 0.0
 
Date/Time
CST
Temp
°C
App
Temp
°C
Dew
Point
Rel
Hum
%
Delta-T
°C
Wind Press
QNH
hPa
Press
MSL
hPa
Rain
since 9 am
mm
Dir
 
Spd
km/h
Gust
km/h
Spd
kts
Gust
kts
15/11:30pm 9.4 6.6 8.6 95 0.4 SW 13 13 7 7 1018.8 - 0.0
15/11:00pm 8.7 5.7 7.8 94 0.4 SW 13 15 7 8 1019.0 - 0.0
15/10:30pm 9.2 6.3 8.1 93 0.5 SSW 13 15 7 8 1018.8 - 0.0
15/10:00pm 10.0 7.3 8.8 92 0.6 SSW 13 15 7 8 1018.7 - 0.0
15/09:30pm 11.0 8.1 9.6 91 0.7 SSW 15 17 8 9 1018.6 - 0.0
15/09:00pm 11.8 8.2 9.9 88 1.0 SSW 19 24 10 13 1018.4 1018.3 0.0
15/08:30pm 12.3 8.7 10.0 86 1.2 SSW 19 30 10 16 1018.4 - 0.0
15/08:00pm 12.7 9.1 10.4 86 1.2 SW 20 28 11 15 1018.4 - 0.0
15/07:30pm 12.3 8.9 10.4 88 1.0 SW 19 24 10 13 1018.1 - 0.0
15/07:00pm 12.7 9.0 10.2 85 1.3 SSW 20 28 11 15 1017.4 - 0.0
15/06:30pm 13.1 8.7 10.3 83 1.5 SSW 24 33 13 18 1017.3 - 0.0
15/06:00pm 13.8 9.0 10.4 80 1.8 SW 26 35 14 19 1016.8 1016.7 0.0
15/05:30pm 14.8 9.8 10.8 77 2.1 SW 28 41 15 22 1016.4 - 0.0
15/05:00pm 15.3 9.0 11.1 76 2.2 SW 35 50 19 27 1016.0 - 0.0
15/04:30pm 15.9 9.6 11.1 73 2.6 SW 35 50 19 27 1015.8 - 0.0
15/04:00pm 16.1 9.1 11.1 72 2.7 SW 39 52 21 28 1015.5 - 0.0
15/03:50pm 16.6 10.3 10.9 69 3.1 SW 35 54 19 29 1015.4 - 0.0
15/03:30pm 16.7 10.2 11.8 73 2.7 SW 37 50 20 27 1015.4 - 0.0
15/03:00pm 17.1 10.8 12.2 73 2.7 SW 37 50 20 27 1015.3 1015.1 0.0
15/02:30pm 17.0 10.2 11.9 72 2.8 SW 39 54 21 29 1015.1 - 0.0
15/02:01pm 17.2 9.6 11.9 71 2.9 SW 43 61 23 33 1015.1 - 0.0
15/02:00pm 17.5 10.1 12.6 73 2.7 SW 43 57 23 31 1015.1 - 0.0
15/01:30pm 17.1 9.6 12.0 72 2.8 SW 43 61 23 33 1014.9 - 0.0
15/01:03pm 17.7 10.4 12.8 73 2.7 SW 43 61 23 33 1014.6 - 0.0
15/01:00pm 17.8 10.4 12.9 73 2.7 SW 44 61 24 33 1014.5 - 0.0
15/12:30pm 17.3 9.9 12.6 74 2.6 SW 43 63 23 34 1014.6 - 0.0
15/12:03pm 16.7 9.1 12.3 75 2.4 SW 44 65 24 35 1014.5 - 0.0
15/12:00pm 16.6 9.1 12.6 77 2.2 WSW 44 61 24 33 1014.5 1014.3 0.0
15/11:30am 16.2 9.0 12.0 76 2.3 SW 41 61 22 33 1014.6 - 0.0
15/11:24am 16.0 9.2 12.0 77 2.2 SW 39 61 21 33 1014.6 - 0.0
15/11:00am 15.7 8.9 11.9 78 2.1 WSW 39 56 21 30 1014.5 - 0.0
15/10:30am 16.0 9.2 11.8 76 2.3 WSW 39 57 21 31 1014.3 - 0.0
15/10:00am 16.2 10.3 12.4 78 2.1 WSW 35 50 19 27 1014.1 - 0.0
15/09:30am 15.8 9.9 12.4 80 1.9 WSW 35 50 19 27 1013.9 - 0.0
15/09:00am 15.8 9.8 12.2 79 2.0 WSW 35 50 19 27 1013.6 1013.4 0.0
15/08:43am 15.4 9.9 12.3 82 1.7 WSW 33 52 18 28 1013.6 - 0.0
15/08:30am 15.5 9.3 12.6 83 1.6 WSW 37 52 20 28 1013.4 - 0.0
15/08:00am 15.1 9.2 12.4 84 1.5 WSW 35 50 19 27 1012.8 - 0.0
15/07:30am 14.6 9.7 12.5 87 1.1 WSW 30 48 16 26 1012.4 - 0.0
15/07:21am 14.7 9.8 12.6 87 1.2 WSW 30 48 16 26 1012.3 - 0.0
15/07:00am 14.5 10.7 12.5 88 1.1 WSW 24 33 13 18 1012.1 - 0.0
15/06:30am 14.3 10.0 12.2 87 1.1 WSW 26 33 14 18 1011.7 - 0.0
15/06:00am 14.5 10.3 12.4 87 1.1 W 26 37 14 20 1011.4 1011.2 0.0
15/05:30am 14.6 11.3 11.7 83 1.6 WNW 20 30 11 16 1011.0 - 0.0
15/05:00am 14.5 11.1 11.3 81 1.7 NW 20 28 11 15 1010.9 - 0.0
15/04:30am 14.3 10.9 11.1 81 1.7 NNW 20 28 11 15 1010.7 - 0.0
15/04:00am 14.2 10.6 10.6 79 1.9 NNW 20 28 11 15 1010.7 - 0.0
15/03:30am 14.1 10.1 10.5 79 1.9 NNW 22 33 12 18 1010.9 - 0.0
15/03:00am 14.1 10.4 10.1 77 2.1 NNW 20 28 11 15 1011.2 1011.0 0.0
15/02:30am 13.8 10.4 10.6 81 1.7 N 19 24 10 13 1011.5 - 0.0
15/02:00am 13.7 10.9 10.1 79 1.9 N 15 20 8 11 1011.8 - 0.0
15/01:30am 13.9 10.7 10.1 78 2.0 N 17 24 9 13 1012.0 - 0.0
15/01:00am 14.0 10.9 10.2 78 2.0 NNW 17 24 9 13 1012.3 - 0.0
15/12:30am 13.0 10.7 10.4 84 1.4 NNW 13 17 7 9 1012.7 - 0.0
15/12:00am 12.9 10.2 10.3 84 1.3 WNW 15 19 8 10 1012.9 1012.7 0.0
 
Date/Time
CST
Temp
°C
App
Temp
°C
Dew
Point
Rel
Hum
%
Delta-T
°C
Wind Press
QNH
hPa
Press
MSL
hPa
Rain
since 9 am
mm
Dir
 
Spd
km/h
Gust
km/h
Spd
kts
Gust
kts
14/11:30pm 13.4 9.9 10.2 81 1.7 W 19 26 10 14 1013.2 - 0.0
14/11:00pm 13.8 9.8 10.4 80 1.8 W 22 28 12 15 1013.5 - 0.0
14/10:30pm 13.7 10.1 10.5 81 1.7 W 20 30 11 16 1013.9 - 0.0
14/10:00pm 14.0 11.2 11.2 83 1.5 WSW 17 22 9 12 1013.9 - 0.0
14/09:30pm 14.8 11.4 11.2 79 1.9 W 20 26 11 14 1013.6 - 0.0
14/09:00pm 15.5 12.2 11.7 78 2.1 WSW 20 28 11 15 1013.3 1013.1 0.0
14/08:30pm 16.3 12.3 10.6 69 3.0 WSW 22 32 12 17 1013.2 - 0.0
14/08:00pm 17.2 13.2 11.7 70 3.0 WSW 24 35 13 19 1012.8 - 0.0
14/07:30pm 19.5 14.7 8.8 50 5.6 WSW 24 35 13 19 1012.2 - 0.0
14/07:00pm 19.5 14.6 5.2 39 7.0 NNE 20 24 11 13 1010.6 - 0.0
14/06:30pm 20.5 15.3 5.3 37 7.5 NNE 22 28 12 15 1010.6 - 0.0
14/06:00pm 21.9 16.2 4.9 33 8.4 NNE 24 30 13 16 1010.9 1010.7 0.0
14/05:30pm 23.4 17.6 4.4 29 9.4 NNE 24 33 13 18 1011.1 - 0.0
14/05:00pm 25.1 18.2 4.8 27 10.2 N 30 43 16 23 1011.4 - 0.0
14/04:30pm 25.7 18.8 4.8 26 10.6 N 30 39 16 21 1011.7 - 0.0
14/04:00pm 26.2 18.6 4.1 24 11.1 N 33 46 18 25 1011.9 - 0.0
14/03:30pm 26.4 18.5 4.2 24 11.2 N 35 44 19 24 1012.0 - 0.0
14/03:00pm 26.4 18.1 4.2 24 11.2 NNE 37 48 20 26 1012.2 1012.0 0.0
14/02:30pm 26.1 17.3 3.4 23 11.2 NNE 39 50 21 27 1012.7 - 0.0
14/02:00pm 26.4 18.6 4.8 25 11.0 NNE 35 43 19 23 1013.1 - 0.0
14/01:30pm 26.5 18.1 3.7 23 11.4 N 37 50 20 27 1013.8 - 0.0
14/01:00pm 25.9 17.8 3.2 23 11.2 N 35 46 19 25 1014.5 - 0.0
14/12:30pm 25.7 18.5 4.8 26 10.6 N 32 41 17 22 1015.3 - 0.0
14/12:00pm 25.0 19.0 5.2 28 10.0 N 26 35 14 19 1016.0 1015.9 0.0
14/11:30am 23.9 17.8 4.8 29 9.5 N 26 33 14 18 1016.7 - 0.0
14/11:00am 22.9 17.0 3.9 29 9.3 N 24 35 13 19 1017.2 - 0.0
14/10:30am 23.0 17.8 5.4 32 8.8 N 22 32 12 17 1017.6 - 0.0
14/10:00am 22.0 17.4 5.4 34 8.3 NNE 19 26 10 14 1017.8 - 0.0
14/09:30am 19.7 16.9 8.4 48 5.9 NE 13 17 7 9 1017.9 - 0.0
14/09:00am 18.4 16.7 9.7 57 4.6 E 9 13 5 7 1018.2 1018.1 0.0
14/08:30am 15.5 13.8 9.8 69 3.0 E 9 13 5 7 1018.2 - 0.0
14/08:00am 12.1 9.8 9.1 82 1.5 E 11 15 6 8 1017.9 - 0.0
14/07:30am 9.6 6.8 8.4 92 0.6 E 13 15 7 8 1017.7 - 0.0
14/07:00am 7.6 4.4 6.9 95 0.3 E 13 15 7 8 1017.9 - 0.0
14/06:30am 6.7 2.9 6.0 95 0.3 ESE 15 17 8 9 1017.9 - 0.0
14/06:00am 6.8 3.0 5.9 94 0.4 ESE 15 17 8 9 1018.1 1018.0 0.0
14/05:30am 7.0 2.8 5.9 93 0.5 ESE 17 19 9 10 1017.9 - 0.0
14/05:00am 6.9 3.0 5.5 91 0.6 SE 15 17 8 9 1017.8 - 0.0
14/04:30am 6.8 3.3 5.6 92 0.5 ESE 13 15 7 8 1017.3 - 0.0
14/04:00am 7.4 4.1 6.3 93 0.5 ESE 13 15 7 8 1017.2 - 0.0
14/03:30am 7.8 4.2 6.9 94 0.4 ESE 15 19 8 10 1017.1 - 0.0
14/03:00am 6.2 2.3 5.5 95 0.3 ESE 15 17 8 9 1017.2 1017.1 0.0
14/02:30am 6.4 3.0 5.7 95 0.3 ESE 13 15 7 8 1017.6 - 0.0
14/02:00am 6.8 3.4 5.9 94 0.4 ESE 13 15 7 8 1018.1 - 0.0
14/01:30am 7.4 3.8 6.7 95 0.3 ESE 15 15 8 8 1018.9 - 0.0
14/01:00am 7.3 3.7 6.6 95 0.3 ESE 15 15 8 8 1019.4 - 0.0
14/12:30am 7.9 4.4 7.0 94 0.4 ESE 15 17 8 9 1019.9 - 0.0
14/12:00am 8.0 4.1 6.9 93 0.5 ESE 17 19 9 10 1020.4 1020.3 0.0
 
Date/Time
CST
Temp
°C
App
Temp
°C
Dew
Point
Rel
Hum
%
Delta-T
°C
Wind Press
QNH
hPa
Press
MSL
hPa
Rain
since 9 am
mm
Dir
 
Spd
km/h
Gust
km/h
Spd
kts
Gust
kts
13/11:30pm 8.5 4.7 7.4 93 0.5 ESE 17 19 9 10 1020.7 - 0.0
13/11:00pm 8.6 5.1 7.4 92 0.6 ESE 15 17 8 9 1021.0 - 0.0
13/10:30pm 9.0 6.0 7.9 93 0.5 ESE 13 15 7 8 1021.1 - 0.0
13/10:00pm 9.2 5.9 8.0 92 0.6 ESE 15 15 8 8 1021.2 - 0.0
13/09:30pm 10.0 7.1 8.3 89 0.8 E 13 15 7 8 1021.4 - 0.0
13/09:00pm 11.0 7.8 8.6 85 1.2 SSE 15 17 8 9 1021.4 1021.3 0.0

Other Formats:

Comma delimited format used in spreadsheet applications
http://www.bom.gov.au/fwo/IDS60801/IDS60801.94685.axf

JavaScript Object Notation format (JSON) in row-major order
http://www.bom.gov.au/fwo/IDS60801/IDS60801.94685.json